createdAt,value
2023-03-26T00:00:44.458Z,4.13
2023-03-26T00:03:53.802Z,4.00
2023-03-26T00:06:56.609Z,3.70
2023-03-26T00:09:59.407Z,3.63
2023-03-26T00:13:02.703Z,3.88
2023-03-26T00:16:06.025Z,3.63
2023-03-26T00:19:09.934Z,4.22
2023-03-26T00:22:14.290Z,4.00
2023-03-26T00:25:17.645Z,3.95
2023-03-26T00:28:21.981Z,3.95
2023-03-26T00:31:24.932Z,4.20
2023-03-26T00:34:27.693Z,3.45
2023-03-26T00:37:31.261Z,4.20
2023-03-26T00:40:36.910Z,3.55
2023-03-26T00:43:39.780Z,3.20
2023-03-26T00:46:44.016Z,4.90
2023-03-26T00:49:49.036Z,4.88
2023-03-26T00:52:52.106Z,4.55
2023-03-26T00:56:00.493Z,3.90
2023-03-26T00:59:03.990Z,3.90
2023-03-26T01:02:10.812Z,4.67
2023-03-26T01:05:35.606Z,4.43
2023-03-26T01:08:45.325Z,5.10
2023-03-26T01:11:49.878Z,6.28
2023-03-26T01:15:00.843Z,5.13
2023-03-26T01:18:06.043Z,4.70
2023-03-26T01:21:09.851Z,5.18
2023-03-26T01:24:13.897Z,7.03
2023-03-26T01:27:24.646Z,5.18
2023-03-26T01:31:25.411Z,5.03
2023-03-26T01:35:03.676Z,6.10
2023-03-26T01:38:28.059Z,5.20
2023-03-26T01:41:42.986Z,5.13
2023-03-26T01:44:57.055Z,5.63
2023-03-26T01:48:00.590Z,4.47
2023-03-26T01:51:05.021Z,5.80
2023-03-26T01:54:13.061Z,6.40
2023-03-26T01:57:37.713Z,6.40
2023-03-26T02:00:51.936Z,7.60
2023-03-26T02:04:06.420Z,6.47
2023-03-26T02:07:13.800Z,4.90
2023-03-26T02:10:24.355Z,5.13
2023-03-26T02:13:28.069Z,5.20
2023-03-26T02:16:30.892Z,5.78
2023-03-26T02:19:33.708Z,5.13
2023-03-26T02:22:41.181Z,6.90
2023-03-26T02:25:45.762Z,10.82
2023-03-26T02:28:48.815Z,10.43
2023-03-26T02:31:51.978Z,8.48
2023-03-26T02:34:54.766Z,11.47
2023-03-26T02:37:57.689Z,12.20
2023-03-26T02:41:01.481Z,10.23
2023-03-26T02:44:14.476Z,8.98
2023-03-26T02:47:51.287Z,7.30
2023-03-26T02:51:29.662Z,7.40
2023-03-26T02:54:37.212Z,8.67
2023-03-26T02:57:53.289Z,6.35
2023-03-26T03:00:59.356Z,5.55
2023-03-26T03:04:12.995Z,8.40
2023-03-26T03:07:16.538Z,7.77
2023-03-26T03:10:22.174Z,7.80
2023-03-26T03:13:44.788Z,6.30
2023-03-26T03:16:49.163Z,6.55
2023-03-26T03:19:51.998Z,6.97
2023-03-26T03:22:54.997Z,6.30
2023-03-26T03:25:59.297Z,6.53
2023-03-26T03:29:02.454Z,6.55
2023-03-26T03:32:05.652Z,5.72
2023-03-26T03:35:17.505Z,10.38
2023-03-26T03:38:25.421Z,8.40
2023-03-26T03:41:30.107Z,7.10
2023-03-26T03:44:33.861Z,6.45
2023-03-26T03:47:39.900Z,7.32
2023-03-26T03:50:43.264Z,6.95
2023-03-26T03:54:08.694Z,7.10
2023-03-26T03:57:22.188Z,8.23
2023-03-26T04:00:34.116Z,8.93
2023-03-26T04:03:58.285Z,8.95
2023-03-26T04:07:13.423Z,8.63
2023-03-26T04:10:35.740Z,11.40
2023-03-26T04:13:47.377Z,10.90
2023-03-26T04:17:06.037Z,10.45
2023-03-26T04:20:15.958Z,13.50
2023-03-26T04:23:22.745Z,12.45
2023-03-26T04:26:32.601Z,10.20
2023-03-26T04:29:46.187Z,9.03
2023-03-26T04:32:54.302Z,7.45
2023-03-26T04:36:01.837Z,8.25
2023-03-26T04:39:07.736Z,6.15
2023-03-26T04:42:33.441Z,5.80
2023-03-26T04:45:48.212Z,6.03
2023-03-26T04:48:55.117Z,10.25
2023-03-26T04:51:58.196Z,10.80
2023-03-26T04:55:33.247Z,8.02
2023-03-26T04:58:43.431Z,8.30
2023-03-26T05:01:47.476Z,10.30
2023-03-26T05:04:52.630Z,10.35
2023-03-26T05:07:56.780Z,9.32
2023-03-26T05:10:59.840Z,5.82
2023-03-26T05:14:09.006Z,7.13
2023-03-26T05:17:15.209Z,11.23
2023-03-26T05:20:22.361Z,5.40
2023-03-26T05:23:25.837Z,3.55
2023-03-26T05:26:52.133Z,3.80
2023-03-26T05:30:02.997Z,3.17
2023-03-26T05:33:13.162Z,2.10
2023-03-26T05:36:23.283Z,2.58
2023-03-26T05:39:41.367Z,5.00
2023-03-26T05:43:03.555Z,11.15
2023-03-26T05:46:12.978Z,12.03
2023-03-26T05:49:15.903Z,11.60
2023-03-26T05:52:19.408Z,7.68
2023-03-26T05:55:55.879Z,8.95
2023-03-26T05:59:17.262Z,10.95
2023-03-26T06:02:39.447Z,10.40
2023-03-26T06:06:10.673Z,7.47
2023-03-26T06:09:18.973Z,6.80
2023-03-26T06:12:22.265Z,8.40
2023-03-26T06:15:25.273Z,9.00
2023-03-26T06:18:37.039Z,6.95
2023-03-26T06:22:15.824Z,5.33
2023-03-26T06:25:37.665Z,4.13
2023-03-26T06:28:49.726Z,3.53
2023-03-26T06:32:25.206Z,3.45
2023-03-26T06:35:32.527Z,3.50
2023-03-26T06:38:35.739Z,3.70
2023-03-26T06:41:41.565Z,3.70
2023-03-26T06:44:55.961Z,3.45
2023-03-26T06:48:17.358Z,3.10
2023-03-26T06:51:33.640Z,3.28
2023-03-26T06:55:13.782Z,2.43
2023-03-26T06:58:24.557Z,2.50
2023-03-26T07:01:46.850Z,2.25
2023-03-26T07:05:22.678Z,2.65
2023-03-26T07:08:44.183Z,2.20
2023-03-26T07:12:12.924Z,2.30
2023-03-26T07:15:34.750Z,2.30
2023-03-26T07:18:58.022Z,5.40
2023-03-26T07:22:06.689Z,2.75
2023-03-26T07:25:42.227Z,2.50
2023-03-26T07:29:33.091Z,2.20
2023-03-26T07:33:14.779Z,2.15
2023-03-26T07:36:57.540Z,1.90
2023-03-26T07:40:40.865Z,2.17
2023-03-26T07:44:44.047Z,2.20
2023-03-26T07:47:57.227Z,2.57
2023-03-26T07:51:12.408Z,2.10
2023-03-26T07:54:34.237Z,1.95
2023-03-26T07:58:05.647Z,1.80
2023-03-26T08:02:06.023Z,0.90
2023-03-26T08:05:20.407Z,0.90
2023-03-26T08:08:47.971Z,1.10
2023-03-26T08:12:51.555Z,1.10
2023-03-26T08:15:58.370Z,1.10
2023-03-26T08:19:19.669Z,1.40
2023-03-26T08:22:31.626Z,1.90
2023-03-26T08:25:52.035Z,1.30
2023-03-26T08:29:16.784Z,1.70
2023-03-26T08:32:20.733Z,1.10
2023-03-26T08:35:25.628Z,1.10
2023-03-26T08:38:28.619Z,1.07
2023-03-26T08:42:21.661Z,1.30
2023-03-26T08:45:56.771Z,1.52
2023-03-26T08:49:09.089Z,1.48
2023-03-26T08:52:21.776Z,3.63
2023-03-26T08:55:55.425Z,1.83
2023-03-26T08:59:36.262Z,1.77
2023-03-26T09:03:03.329Z,1.63
2023-03-26T09:06:25.439Z,1.45
2023-03-26T09:09:37.310Z,1.60
2023-03-26T09:13:01.298Z,1.67
2023-03-26T09:16:29.912Z,1.83
2023-03-26T09:20:10.150Z,1.20
2023-03-26T09:23:19.408Z,1.35
2023-03-26T09:26:51.113Z,2.50
2023-03-26T09:30:21.835Z,1.37
2023-03-26T09:33:52.338Z,1.75
2023-03-26T09:37:33.756Z,2.58
2023-03-26T09:41:13.953Z,1.65
2023-03-26T09:44:56.544Z,1.90
2023-03-26T09:48:19.141Z,1.27
2023-03-26T09:51:38.615Z,1.90
2023-03-26T09:54:50.667Z,1.30
2023-03-26T09:58:33.185Z,1.60
2023-03-26T10:01:38.826Z,0.93
2023-03-26T10:04:59.708Z,1.10
2023-03-26T10:08:40.123Z,1.50
2023-03-26T10:12:12.380Z,1.33
2023-03-26T10:15:27.224Z,1.30
2023-03-26T10:18:50.161Z,1.40
2023-03-26T10:22:14.137Z,1.00
2023-03-26T10:25:42.815Z,0.70
2023-03-26T10:28:59.593Z,1.88
2023-03-26T10:32:44.423Z,1.75
2023-03-26T10:35:53.308Z,1.80
2023-03-26T10:39:38.487Z,1.40
2023-03-26T10:43:07.353Z,1.30
2023-03-26T10:46:26.657Z,1.42
2023-03-26T10:49:55.788Z,2.50
2023-03-26T10:53:23.540Z,2.10
2023-03-26T10:56:41.003Z,1.60
2023-03-26T10:59:43.768Z,1.90
2023-03-26T11:02:59.268Z,1.77
2023-03-26T11:06:20.527Z,1.67
2023-03-26T11:09:38.731Z,1.50
2023-03-26T11:13:14.682Z,2.30
2023-03-26T11:16:44.839Z,1.05
2023-03-26T11:19:47.553Z,0.77
2023-03-26T11:23:05.880Z,1.00
2023-03-26T11:26:17.443Z,1.40
2023-03-26T11:29:49.951Z,1.50
2023-03-26T11:32:57.894Z,1.80
2023-03-26T11:36:09.043Z,1.05
2023-03-26T11:39:17.894Z,1.15
2023-03-26T11:42:24.526Z,0.43
2023-03-26T11:45:32.244Z,0.90
2023-03-26T11:48:49.145Z,1.63
2023-03-26T11:51:52.251Z,1.50
2023-03-26T11:54:59.520Z,1.58
2023-03-26T11:58:06.220Z,2.30
2023-03-26T12:01:30.105Z,2.80
2023-03-26T12:04:41.822Z,1.40
2023-03-26T12:07:51.441Z,0.93
2023-03-26T12:11:10.454Z,1.08
2023-03-26T12:14:24.994Z,0.50
2023-03-26T12:17:35.973Z,1.90
2023-03-26T12:20:39.804Z,0.60
2023-03-26T12:23:51.700Z,0.90
2023-03-26T12:27:02.237Z,1.40
2023-03-26T12:30:26.341Z,1.15
2023-03-26T12:33:34.343Z,0.90
2023-03-26T12:36:39.121Z,0.75
2023-03-26T12:40:08.608Z,0.45
2023-03-26T12:44:49.858Z,1.00
2023-03-26T12:47:57.902Z,0.70
2023-03-26T12:50:15.681Z,0.60
2023-03-26T12:53:34.085Z,0.80
2023-03-26T12:56:42.025Z,1.00
2023-03-26T13:00:23.033Z,0.98
2023-03-26T13:03:52.907Z,1.60
2023-03-26T13:07:14.311Z,1.87
2023-03-26T13:10:34.973Z,3.38
2023-03-26T13:13:52.890Z,1.58
2023-03-26T13:17:02.726Z,1.33
2023-03-26T13:20:35.632Z,1.40
2023-03-26T13:23:50.433Z,0.80
2023-03-26T13:27:31.031Z,1.25
2023-03-26T13:30:59.152Z,1.95
2023-03-26T13:34:28.607Z,1.85
2023-03-26T13:37:37.329Z,2.30
2023-03-26T13:41:15.647Z,6.43
2023-03-26T13:44:33.709Z,2.60
2023-03-26T13:47:41.542Z,2.08
2023-03-26T13:51:10.018Z,1.30
2023-03-26T13:54:30.720Z,2.58
2023-03-26T13:57:39.632Z,3.87
2023-03-26T14:00:55.739Z,3.22
2023-03-26T14:04:06.957Z,1.35
2023-03-26T14:07:16.092Z,1.92
2023-03-26T14:10:25.004Z,1.20
2023-03-26T14:14:16.961Z,1.93
2023-03-26T14:17:58.798Z,3.17
2023-03-26T14:21:43.050Z,1.30
2023-03-26T14:24:55.101Z,1.20
2023-03-26T14:28:21.773Z,0.98
2023-03-26T14:31:51.642Z,1.20
2023-03-26T14:35:11.755Z,1.50
2023-03-26T14:38:37.286Z,2.60
2023-03-26T14:41:49.220Z,1.40
2023-03-26T14:45:26.394Z,1.23
2023-03-26T14:48:54.104Z,1.30
2023-03-26T14:52:07.535Z,1.02
2023-03-26T14:55:26.872Z,1.20
2023-03-26T14:58:42.082Z,2.83
2023-03-26T15:02:17.629Z,2.20
2023-03-26T15:05:26.723Z,1.90
2023-03-26T15:08:51.795Z,0.65
2023-03-26T15:12:13.723Z,0.80
2023-03-26T15:16:05.412Z,4.45
2023-03-26T15:19:20.703Z,2.70
2023-03-26T15:22:39.223Z,1.23
2023-03-26T15:26:04.319Z,1.58
2023-03-26T15:29:45.925Z,1.55
2023-03-26T15:32:58.471Z,1.45
2023-03-26T15:36:04.266Z,1.60
2023-03-26T15:39:59.784Z,2.27
2023-03-26T15:43:13.601Z,2.60
2023-03-26T15:46:51.918Z,3.33
2023-03-26T15:50:32.314Z,3.40
2023-03-26T15:53:45.319Z,3.60
2023-03-26T15:57:20.157Z,3.43
2023-03-26T16:00:26.053Z,7.80
2023-03-26T16:03:39.959Z,10.02
2023-03-26T16:06:54.738Z,3.75
2023-03-26T16:10:13.601Z,7.22
2023-03-26T16:13:17.528Z,7.60
2023-03-26T16:16:25.485Z,8.82
2023-03-26T16:19:49.130Z,4.45
2023-03-26T16:22:52.325Z,4.65
2023-03-26T16:26:19.706Z,3.67
2023-03-26T16:29:26.946Z,4.00
2023-03-26T16:32:36.678Z,6.15
2023-03-26T16:35:42.096Z,10.75
2023-03-26T16:39:07.298Z,10.77
2023-03-26T16:42:16.330Z,5.95
2023-03-26T16:45:27.325Z,7.00
2023-03-26T16:48:55.701Z,9.88
2023-03-26T16:52:35.851Z,15.43
2023-03-26T16:55:42.860Z,21.75
2023-03-26T16:59:01.899Z,22.02
2023-03-26T17:02:23.328Z,21.87
2023-03-26T17:06:02.400Z,11.90
2023-03-26T17:09:24.804Z,9.70
2023-03-26T17:12:46.602Z,5.97
2023-03-26T17:16:16.787Z,7.07
2023-03-26T17:19:42.018Z,5.80
2023-03-26T17:23:22.373Z,5.43
2023-03-26T17:26:42.652Z,5.47
2023-03-26T17:30:00.513Z,6.05
2023-03-26T17:33:06.190Z,8.00
2023-03-26T17:36:12.026Z,7.13
2023-03-26T17:39:21.405Z,13.48
2023-03-26T17:42:29.037Z,21.20
2023-03-26T17:45:37.098Z,19.70
2023-03-26T17:48:47.043Z,11.73
2023-03-26T17:52:15.549Z,7.47
2023-03-26T17:55:22.413Z,7.95
2023-03-26T17:58:31.935Z,8.68
2023-03-26T18:01:44.304Z,8.00
2023-03-26T18:04:52.994Z,8.27
2023-03-26T18:08:28.281Z,7.20
2023-03-26T18:11:56.257Z,6.63
2023-03-26T18:15:20.977Z,5.43
2023-03-26T18:18:29.939Z,5.90
2023-03-26T18:21:39.451Z,4.78
2023-03-26T18:24:42.327Z,5.23
2023-03-26T18:27:45.821Z,4.25
2023-03-26T18:30:49.302Z,4.88
2023-03-26T18:33:59.400Z,4.47
2023-03-26T18:37:15.000Z,5.82
2023-03-26T18:40:21.247Z,6.50
2023-03-26T18:43:34.453Z,10.02
2023-03-26T18:46:38.892Z,8.52
2023-03-26T18:49:47.277Z,10.15
2023-03-26T18:52:51.427Z,8.68
2023-03-26T18:55:54.640Z,7.03
2023-03-26T18:58:59.727Z,7.85
2023-03-26T19:02:07.545Z,6.10
2023-03-26T19:05:15.734Z,3.50
2023-03-26T19:08:19.775Z,2.72
2023-03-26T19:11:24.447Z,2.93
2023-03-26T19:14:28.728Z,3.33
2023-03-26T19:17:39.346Z,2.88
2023-03-26T19:20:45.922Z,3.30
2023-03-26T19:23:49.986Z,3.50
2023-03-26T19:26:53.578Z,3.30
2023-03-26T19:29:57.736Z,2.40
2023-03-26T19:33:13.863Z,2.63
2023-03-26T19:36:21.507Z,2.83
2023-03-26T19:39:39.669Z,2.95
2023-03-26T19:42:44.996Z,2.70
2023-03-26T19:49:47.243Z,3.03
2023-03-26T19:51:18.388Z,3.50
2023-03-26T19:53:16.808Z,3.72
2023-03-26T19:56:22.125Z,4.35
2023-03-26T19:59:25.261Z,3.70
2023-03-26T20:02:29.356Z,3.30
2023-03-26T20:05:36.501Z,3.42
2023-03-26T20:08:40.745Z,3.78
2023-03-26T20:11:43.929Z,3.40
2023-03-26T20:14:48.927Z,5.37
2023-03-26T20:17:55.736Z,7.15
2023-03-26T20:21:01.764Z,5.20
2023-03-26T20:24:15.034Z,3.30
2023-03-26T20:27:19.364Z,2.70
2023-03-26T20:30:37.052Z,2.80
2023-03-26T20:33:41.355Z,2.75
2023-03-26T20:36:45.807Z,2.70
2023-03-26T20:39:48.660Z,2.20
2023-03-26T20:42:51.868Z,2.67
2023-03-26T20:45:55.895Z,2.13
2023-03-26T20:49:00.035Z,1.83
2023-03-26T20:52:03.070Z,1.58
2023-03-26T20:55:06.480Z,2.03
2023-03-26T20:58:13.617Z,1.75
2023-03-26T21:01:17.681Z,1.70
2023-03-26T21:04:22.516Z,1.60
2023-03-26T21:07:25.334Z,1.60
2023-03-26T21:10:31.690Z,1.70
2023-03-26T21:13:50.166Z,1.73
2023-03-26T21:16:53.860Z,1.70
2023-03-26T21:19:57.732Z,1.30
2023-03-26T21:23:10.103Z,1.02
2023-03-26T21:26:32.792Z,1.30
2023-03-26T21:29:35.947Z,1.30
2023-03-26T21:32:39.352Z,1.50
2023-03-26T21:35:42.575Z,1.50
2023-03-26T21:38:46.394Z,1.70
2023-03-26T21:42:04.977Z,1.70
2023-03-26T21:45:09.836Z,1.52
2023-03-26T21:48:13.363Z,1.47
2023-03-26T21:51:19.438Z,1.75
2023-03-26T21:54:25.969Z,2.30
2023-03-26T21:57:36.907Z,1.83
2023-03-26T22:01:01.615Z,1.80
2023-03-26T22:04:15.560Z,1.80
2023-03-26T22:07:23.394Z,2.03
2023-03-26T22:10:27.518Z,1.98
2023-03-26T22:13:31.230Z,1.90
2023-03-26T22:16:34.132Z,2.20
2023-03-26T22:19:37.392Z,1.93
2023-03-26T22:22:48.890Z,2.05
2023-03-26T22:25:52.405Z,1.70
2023-03-26T22:28:55.133Z,1.45
2023-03-26T22:31:58.029Z,1.73
2023-03-26T22:35:01.332Z,1.50
2023-03-26T22:38:05.255Z,1.60
2023-03-26T22:41:08.653Z,1.58
2023-03-26T22:44:19.648Z,2.00
2023-03-26T22:47:22.892Z,2.00
2023-03-26T22:50:27.158Z,1.70
2023-03-26T22:53:31.054Z,1.92
2023-03-26T22:56:34.133Z,2.10
2023-03-26T22:59:37.565Z,1.77
2023-03-26T23:02:41.269Z,1.55
2023-03-26T23:05:44.239Z,1.97
2023-03-26T23:08:47.290Z,1.90
2023-03-26T23:11:51.054Z,1.45
2023-03-26T23:14:54.083Z,2.00
2023-03-26T23:17:58.741Z,1.63
2023-03-26T23:21:01.793Z,1.63
2023-03-26T23:24:05.291Z,1.98
2023-03-26T23:27:08.513Z,2.35
2023-03-26T23:30:12.004Z,2.30
2023-03-26T23:33:14.941Z,2.30
2023-03-26T23:36:19.595Z,2.03
2023-03-26T23:39:22.473Z,1.98
2023-03-26T23:42:28.631Z,2.50
2023-03-26T23:45:33.548Z,2.22
2023-03-26T23:48:37.760Z,2.60
2023-03-26T23:51:40.778Z,2.40
2023-03-26T23:54:44.790Z,2.40
2023-03-26T23:57:47.854Z,2.13
